Terminal Aerodrome Forecast
Issued by NWS Blacksburg, VA

Home | Current Version | Previous Version | Text Only | Print | Product List | Glossary On
Versions: 1 2 3 4 5 6 7 8 9 10 11 12
000
FTUS41 KRNK 230539
TAFROA
TAF
KROA 230539Z 2306/2406 30013G23KT P6SM FEW070
     FM231400 32017G27KT P6SM SKC
     FM240000 32010KT P6SM SKC=

USA.gov is the U.S. government's official web portal to all federal, state and local government web resources and services.